Decatur, Tennessee
Current Conditions -  °F | °C
As of 1:35 AM on Saturday 25 Oct 2014 (Local Time) from KMMI Reporting Station
Clear Clear  
Wind Chill: 39°   Ceiling: Unl
Heat Index: 39°   Visibility: 10mi
Dew Point: 39°   Wind: 0mph
Humidity: 100%   Direction: NA
Pressure: 30.09"   Gusts: NA
Location:  35.51°N, 84.79°W
Report Text: KMMI 250535Z AUTO 00000KT 10SM CLR 04/04 A3009 RMK
Loading
Personal Weather Stations






























Interactive Weather Map New forecast layout! Learn more

10-Day Weather Forecast

Advertisements
Track Severe Weather on mobile